sensor_id;sensor_type;location;lat;lon;timestamp;P1;durP1;ratioP1;P2;durP2;ratioP2
20772;SDS011;10546;50.674;4.616;2022-12-10T00:01:28;64.50;;;19.70;;
20772;SDS011;10546;50.674;4.616;2022-12-10T00:03:56;67.43;;;20.73;;
20772;SDS011;10546;50.674;4.616;2022-12-10T07:20:49;74.40;;;13.70;;
20772;SDS011;10546;50.674;4.616;2022-12-10T07:23:15;121.97;;;21.00;;
20772;SDS011;10546;50.674;4.616;2022-12-10T07:25:40;168.10;;;24.57;;
20772;SDS011;10546;50.674;4.616;2022-12-10T07:28:06;139.77;;;21.80;;
20772;SDS011;10546;50.674;4.616;2022-12-10T07:30:32;122.43;;;20.50;;
20772;SDS011;10546;50.674;4.616;2022-12-10T07:32:58;150.50;;;22.07;;
20772;SDS011;10546;50.674;4.616;2022-12-10T07:35:24;172.30;;;23.07;;
20772;SDS011;10546;50.674;4.616;2022-12-10T07:37:49;254.60;;;24.70;;
20772;SDS011;10546;50.674;4.616;2022-12-10T07:40:15;153.43;;;23.83;;
20772;SDS011;10546;50.674;4.616;2022-12-10T07:42:41;137.83;;;23.73;;
20772;SDS011;10546;50.674;4.616;2022-12-10T07:45:06;117.13;;;23.33;;
20772;SDS011;10546;50.674;4.616;2022-12-10T07:47:34;200.23;;;22.70;;
20772;SDS011;10546;50.674;4.616;2022-12-10T07:50:04;100.57;;;21.53;;
20772;SDS011;10546;50.674;4.616;2022-12-10T07:52:30;181.67;;;23.73;;
20772;SDS011;10546;50.674;4.616;2022-12-10T07:54:56;165.77;;;22.70;;
20772;SDS011;10546;50.674;4.616;2022-12-10T07:57:22;168.83;;;19.70;;
20772;SDS011;10546;50.674;4.616;2022-12-10T07:59:47;126.43;;;22.50;;
20772;SDS011;10546;50.674;4.616;2022-12-10T08:02:13;150.43;;;23.20;;
20772;SDS011;10546;50.674;4.616;2022-12-10T08:04:38;179.00;;;23.97;;
20772;SDS011;10546;50.674;4.616;2022-12-10T08:07:04;122.23;;;22.80;;
20772;SDS011;10546;50.674;4.616;2022-12-10T08:09:30;102.10;;;19.47;;
20772;SDS011;10546;50.674;4.616;2022-12-10T08:11:56;126.73;;;20.63;;
20772;SDS011;10546;50.674;4.616;2022-12-10T08:14:22;65.10;;;15.97;;
20772;SDS011;10546;50.674;4.616;2022-12-10T08:16:49;88.77;;;21.93;;
20772;SDS011;10546;50.674;4.616;2022-12-10T08:19:14;106.50;;;21.70;;
20772;SDS011;10546;50.674;4.616;2022-12-10T08:21:40;109.80;;;21.90;;
20772;SDS011;10546;50.674;4.616;2022-12-10T08:24:07;56.03;;;11.57;;
20772;SDS011;10546;50.674;4.616;2022-12-10T08:26:33;98.87;;;19.60;;
20772;SDS011;10546;50.674;4.616;2022-12-10T08:28:59;178.60;;;20.40;;
20772;SDS011;10546;50.674;4.616;2022-12-10T08:31:26;128.80;;;15.97;;
20772;SDS011;10546;50.674;4.616;2022-12-10T08:33:52;121.67;;;19.27;;
20772;SDS011;10546;50.674;4.616;2022-12-10T08:36:17;119.37;;;16.57;;
20772;SDS011;10546;50.674;4.616;2022-12-10T08:38:44;85.80;;;16.93;;
20772;SDS011;10546;50.674;4.616;2022-12-10T08:41:14;114.07;;;19.83;;
20772;SDS011;10546;50.674;4.616;2022-12-10T08:43:46;87.73;;;18.47;;
20772;SDS011;10546;50.674;4.616;2022-12-10T08:46:31;107.80;;;18.83;;
20772;SDS011;10546;50.674;4.616;2022-12-10T08:48:56;107.23;;;19.83;;
20772;SDS011;10546;50.674;4.616;2022-12-10T08:51:26;76.63;;;16.73;;
20772;SDS011;10546;50.674;4.616;2022-12-10T08:53:53;62.83;;;15.33;;
20772;SDS011;10546;50.674;4.616;2022-12-10T08:56:20;86.60;;;18.43;;
20772;SDS011;10546;50.674;4.616;2022-12-10T08:58:46;87.57;;;18.50;;
20772;SDS011;10546;50.674;4.616;2022-12-10T09:01:14;76.50;;;18.13;;
20772;SDS011;10546;50.674;4.616;2022-12-10T09:03:45;110.93;;;19.83;;
20772;SDS011;10546;50.674;4.616;2022-12-10T09:06:12;89.83;;;21.20;;
20772;SDS011;10546;50.674;4.616;2022-12-10T09:08:39;71.67;;;18.93;;
20772;SDS011;10546;50.674;4.616;2022-12-10T09:11:12;91.97;;;18.23;;
20772;SDS011;10546;50.674;4.616;2022-12-10T09:13:46;78.77;;;16.90;;
20772;SDS011;10546;50.674;4.616;2022-12-10T09:16:12;93.27;;;16.83;;
20772;SDS011;10546;50.674;4.616;2022-12-10T09:18:38;80.60;;;18.33;;
20772;SDS011;10546;50.674;4.616;2022-12-10T09:21:08;147.30;;;18.90;;
20772;SDS011;10546;50.674;4.616;2022-12-10T09:23:37;70.97;;;16.93;;
20772;SDS011;10546;50.674;4.616;2022-12-10T09:26:10;107.97;;;16.57;;
20772;SDS011;10546;50.674;4.616;2022-12-10T09:28:37;97.97;;;15.63;;
20772;SDS011;10546;50.674;4.616;2022-12-10T09:31:04;133.40;;;17.90;;
20772;SDS011;10546;50.674;4.616;2022-12-10T09:33:31;89.53;;;15.33;;
20772;SDS011;10546;50.674;4.616;2022-12-10T09:35:57;92.47;;;17.10;;
20772;SDS011;10546;50.674;4.616;2022-12-10T09:38:23;79.40;;;18.07;;
20772;SDS011;10546;50.674;4.616;2022-12-10T09:46:24;82.67;;;17.53;;
20772;SDS011;10546;50.674;4.616;2022-12-10T09:51:59;103.97;;;19.43;;
20772;SDS011;10546;50.674;4.616;2022-12-10T09:54:31;115.77;;;18.17;;
20772;SDS011;10546;50.674;4.616;2022-12-10T09:56:59;71.20;;;17.03;;
20772;SDS011;10546;50.674;4.616;2022-12-10T09:59:34;56.53;;;14.93;;
20772;SDS011;10546;50.674;4.616;2022-12-10T10:04:50;58.57;;;14.90;;
20772;SDS011;10546;50.674;4.616;2022-12-10T10:07:21;75.20;;;15.43;;
20772;SDS011;10546;50.674;4.616;2022-12-10T10:09:51;62.33;;;13.10;;
20772;SDS011;10546;50.674;4.616;2022-12-10T10:12:27;74.90;;;13.40;;
20772;SDS011;10546;50.674;4.616;2022-12-10T10:14:54;59.57;;;16.93;;
20772;SDS011;10546;50.674;4.616;2022-12-10T10:17:27;69.50;;;17.53;;
20772;SDS011;10546;50.674;4.616;2022-12-10T10:19:58;103.47;;;17.20;;
20772;SDS011;10546;50.674;4.616;2022-12-10T10:22:24;60.00;;;16.23;;
20772;SDS011;10546;50.674;4.616;2022-12-10T10:24:51;64.73;;;17.40;;
20772;SDS011;10546;50.674;4.616;2022-12-10T10:27:21;51.73;;;17.00;;
20772;SDS011;10546;50.674;4.616;2022-12-10T10:29:49;54.40;;;15.93;;
20772;SDS011;10546;50.674;4.616;2022-12-10T10:32:18;53.00;;;17.10;;
20772;SDS011;10546;50.674;4.616;2022-12-10T10:34:46;69.50;;;18.33;;
20772;SDS011;10546;50.674;4.616;2022-12-10T10:37:27;76.37;;;16.60;;
20772;SDS011;10546;50.674;4.616;2022-12-10T10:39:58;85.00;;;18.37;;
20772;SDS011;10546;50.674;4.616;2022-12-10T10:45:01;59.63;;;17.40;;
20772;SDS011;10546;50.674;4.616;2022-12-10T10:47:33;42.17;;;13.93;;
20772;SDS011;10546;50.674;4.616;2022-12-10T10:49:59;62.33;;;15.67;;
20772;SDS011;10546;50.674;4.616;2022-12-10T10:52:28;46.47;;;15.40;;
20772;SDS011;10546;50.674;4.616;2022-12-10T10:54:55;62.40;;;15.30;;
20772;SDS011;10546;50.674;4.616;2022-12-10T10:59:52;82.47;;;15.63;;
20772;SDS011;10546;50.674;4.616;2022-12-10T11:02:28;42.63;;;12.23;;
20772;SDS011;10546;50.674;4.616;2022-12-10T11:04:57;51.47;;;14.67;;
20772;SDS011;10546;50.674;4.616;2022-12-10T11:08:03;75.23;;;16.43;;
20772;SDS011;10546;50.674;4.616;2022-12-10T11:10:32;56.70;;;15.33;;
20772;SDS011;10546;50.674;4.616;2022-12-10T11:17:55;68.27;;;16.47;;
20772;SDS011;10546;50.674;4.616;2022-12-10T11:20:23;50.37;;;13.63;;
20772;SDS011;10546;50.674;4.616;2022-12-10T11:22:52;61.20;;;15.03;;
20772;SDS011;10546;50.674;4.616;2022-12-10T11:25:20;55.63;;;12.70;;
20772;SDS011;10546;50.674;4.616;2022-12-10T11:28:05;54.77;;;15.47;;
20772;SDS011;10546;50.674;4.616;2022-12-10T11:31:38;62.47;;;17.17;;
20772;SDS011;10546;50.674;4.616;2022-12-10T11:36:35;51.03;;;16.47;;
20772;SDS011;10546;50.674;4.616;2022-12-10T11:44:49;53.80;;;16.73;;
20772;SDS011;10546;50.674;4.616;2022-12-10T11:47:34;53.37;;;15.43;;
20772;SDS011;10546;50.674;4.616;2022-12-10T11:52:57;57.13;;;16.10;;
20772;SDS011;10546;50.674;4.616;2022-12-10T11:58:43;63.73;;;16.47;;
20772;SDS011;10546;50.674;4.616;2022-12-10T12:01:24;56.90;;;16.83;;
20772;SDS011;10546;50.674;4.616;2022-12-10T12:06:52;60.30;;;18.37;;
20772;SDS011;10546;50.674;4.616;2022-12-10T12:09:53;59.87;;;18.20;;
20772;SDS011;10546;50.674;4.616;2022-12-10T12:20:57;57.93;;;19.30;;
20772;SDS011;10546;50.674;4.616;2022-12-10T12:26:15;65.83;;;19.13;;
20772;SDS011;10546;50.674;4.616;2022-12-10T12:31:18;67.77;;;19.10;;
20772;SDS011;10546;50.674;4.616;2022-12-10T12:33:51;65.83;;;19.47;;
20772;SDS011;10546;50.674;4.616;2022-12-10T12:36:24;55.60;;;17.40;;
20772;SDS011;10546;50.674;4.616;2022-12-10T12:39:01;52.47;;;17.00;;
20772;SDS011;10546;50.674;4.616;2022-12-10T12:46:54;82.07;;;37.97;;
20772;SDS011;10546;50.674;4.616;2022-12-10T12:49:28;87.13;;;36.70;;
20772;SDS011;10546;50.674;4.616;2022-12-10T12:55:02;66.40;;;24.00;;
20772;SDS011;10546;50.674;4.616;2022-12-10T12:57:52;85.07;;;30.53;;
20772;SDS011;10546;50.674;4.616;2022-12-10T13:00:36;74.23;;;18.40;;
20772;SDS011;10546;50.674;4.616;2022-12-10T13:03:25;57.03;;;18.90;;
20772;SDS011;10546;50.674;4.616;2022-12-10T13:05:54;45.07;;;14.67;;
20772;SDS011;10546;50.674;4.616;2022-12-10T13:11:31;50.70;;;16.60;;
20772;SDS011;10546;50.674;4.616;2022-12-10T13:13:38;67.33;;;19.43;;
20772;SDS011;10546;50.674;4.616;2022-12-10T13:17:02;59.50;;;19.87;;
20772;SDS011;10546;50.674;4.616;2022-12-10T13:19:44;47.10;;;15.70;;
20772;SDS011;10546;50.674;4.616;2022-12-10T13:22:11;32.87;;;11.37;;
20772;SDS011;10546;50.674;4.616;2022-12-10T13:25:16;51.17;;;17.13;;
20772;SDS011;10546;50.674;4.616;2022-12-10T13:27:56;47.90;;;15.67;;
20772;SDS011;10546;50.674;4.616;2022-12-10T13:30:39;54.47;;;16.57;;
20772;SDS011;10546;50.674;4.616;2022-12-10T13:33:15;58.90;;;19.83;;
20772;SDS011;10546;50.674;4.616;2022-12-10T13:36:04;67.57;;;19.80;;
20772;SDS011;10546;50.674;4.616;2022-12-10T13:38:29;67.47;;;18.93;;
20772;SDS011;10546;50.674;4.616;2022-12-10T13:41:00;66.23;;;18.97;;
20772;SDS011;10546;50.674;4.616;2022-12-10T13:43:53;74.47;;;21.00;;
20772;SDS011;10546;50.674;4.616;2022-12-10T13:47:23;71.73;;;19.43;;
20772;SDS011;10546;50.674;4.616;2022-12-10T13:52:14;74.43;;;22.63;;
20772;SDS011;10546;50.674;4.616;2022-12-10T14:00:49;110.90;;;39.63;;
20772;SDS011;10546;50.674;4.616;2022-12-10T14:03:28;66.73;;;24.57;;
20772;SDS011;10546;50.674;4.616;2022-12-10T14:08:39;58.37;;;20.07;;
20772;SDS011;10546;50.674;4.616;2022-12-10T14:11:16;72.87;;;21.30;;
20772;SDS011;10546;50.674;4.616;2022-12-10T14:13:49;64.23;;;20.40;;
20772;SDS011;10546;50.674;4.616;2022-12-10T14:16:20;56.27;;;19.70;;
20772;SDS011;10546;50.674;4.616;2022-12-10T14:19:01;70.13;;;21.23;;
20772;SDS011;10546;50.674;4.616;2022-12-10T14:21:33;76.43;;;20.53;;
20772;SDS011;10546;50.674;4.616;2022-12-10T14:24:00;72.83;;;20.67;;
20772;SDS011;10546;50.674;4.616;2022-12-10T14:26:30;72.40;;;22.13;;
20772;SDS011;10546;50.674;4.616;2022-12-10T14:29:00;76.17;;;22.93;;
20772;SDS011;10546;50.674;4.616;2022-12-10T14:31:47;77.43;;;23.03;;
20772;SDS011;10546;50.674;4.616;2022-12-10T14:34:16;85.80;;;27.50;;
20772;SDS011;10546;50.674;4.616;2022-12-10T14:36:52;86.67;;;24.97;;
20772;SDS011;10546;50.674;4.616;2022-12-10T14:39:27;112.57;;;37.83;;
20772;SDS011;10546;50.674;4.616;2022-12-10T14:41:56;104.07;;;33.03;;
20772;SDS011;10546;50.674;4.616;2022-12-10T14:44:25;119.53;;;37.03;;
20772;SDS011;10546;50.674;4.616;2022-12-10T14:46:51;99.33;;;33.57;;
20772;SDS011;10546;50.674;4.616;2022-12-10T14:49:26;63.23;;;21.13;;
20772;SDS011;10546;50.674;4.616;2022-12-10T14:51:52;104.73;;;31.90;;
20772;SDS011;10546;50.674;4.616;2022-12-10T14:54:32;94.80;;;29.47;;
20772;SDS011;10546;50.674;4.616;2022-12-10T14:57:06;121.17;;;39.13;;
20772;SDS011;10546;50.674;4.616;2022-12-10T14:59:40;112.43;;;33.90;;
20772;SDS011;10546;50.674;4.616;2022-12-10T15:02:15;107.47;;;30.63;;
20772;SDS011;10546;50.674;4.616;2022-12-10T15:04:43;104.37;;;32.43;;
20772;SDS011;10546;50.674;4.616;2022-12-10T15:07:13;90.10;;;25.53;;
20772;SDS011;10546;50.674;4.616;2022-12-10T15:09:42;94.23;;;25.03;;
20772;SDS011;10546;50.674;4.616;2022-12-10T15:12:14;81.43;;;23.87;;
20772;SDS011;10546;50.674;4.616;2022-12-10T15:15:05;83.00;;;26.57;;
20772;SDS011;10546;50.674;4.616;2022-12-10T15:17:51;91.40;;;27.10;;
20772;SDS011;10546;50.674;4.616;2022-12-10T15:20:22;130.70;;;41.20;;
20772;SDS011;10546;50.674;4.616;2022-12-10T15:22:51;135.27;;;38.10;;
20772;SDS011;10546;50.674;4.616;2022-12-10T15:25:21;129.07;;;33.00;;
20772;SDS011;10546;50.674;4.616;2022-12-10T15:28:00;101.60;;;34.83;;
20772;SDS011;10546;50.674;4.616;2022-12-10T15:33:40;101.97;;;34.70;;
20772;SDS011;10546;50.674;4.616;2022-12-10T15:36:16;76.00;;;25.23;;
20772;SDS011;10546;50.674;4.616;2022-12-10T15:38:42;72.90;;;25.40;;
20772;SDS011;10546;50.674;4.616;2022-12-10T15:41:22;62.60;;;21.07;;
20772;SDS011;10546;50.674;4.616;2022-12-10T15:43:58;67.03;;;19.43;;
20772;SDS011;10546;50.674;4.616;2022-12-10T15:46:28;75.77;;;21.00;;
20772;SDS011;10546;50.674;4.616;2022-12-10T15:48:53;64.70;;;20.53;;
20772;SDS011;10546;50.674;4.616;2022-12-10T15:51:19;72.77;;;21.30;;
20772;SDS011;10546;50.674;4.616;2022-12-10T15:53:45;75.43;;;22.33;;
20772;SDS011;10546;50.674;4.616;2022-12-10T15:56:11;63.30;;;21.57;;
20772;SDS011;10546;50.674;4.616;2022-12-10T15:58:36;73.70;;;20.23;;
20772;SDS011;10546;50.674;4.616;2022-12-10T16:01:02;57.20;;;20.97;;
20772;SDS011;10546;50.674;4.616;2022-12-10T16:03:28;77.53;;;22.37;;
20772;SDS011;10546;50.674;4.616;2022-12-10T16:05:54;68.73;;;20.90;;
20772;SDS011;10546;50.674;4.616;2022-12-10T16:08:23;67.90;;;24.07;;
20772;SDS011;10546;50.674;4.616;2022-12-10T16:10:54;62.63;;;20.77;;
20772;SDS011;10546;50.674;4.616;2022-12-10T16:13:25;47.50;;;16.83;;
20772;SDS011;10546;50.674;4.616;2022-12-10T16:15:57;72.83;;;25.30;;
20772;SDS011;10546;50.674;4.616;2022-12-10T16:18:25;69.20;;;22.00;;
20772;SDS011;10546;50.674;4.616;2022-12-10T16:20:51;80.63;;;24.07;;
20772;SDS011;10546;50.674;4.616;2022-12-10T16:23:17;77.30;;;24.37;;
20772;SDS011;10546;50.674;4.616;2022-12-10T16:25:43;59.47;;;20.43;;
20772;SDS011;10546;50.674;4.616;2022-12-10T16:28:13;63.63;;;22.00;;
20772;SDS011;10546;50.674;4.616;2022-12-10T16:30:44;62.63;;;20.43;;
20772;SDS011;10546;50.674;4.616;2022-12-10T16:33:13;63.40;;;20.80;;
20772;SDS011;10546;50.674;4.616;2022-12-10T16:35:40;68.03;;;27.63;;
20772;SDS011;10546;50.674;4.616;2022-12-10T16:38:07;64.23;;;20.70;;
20772;SDS011;10546;50.674;4.616;2022-12-10T16:40:34;65.10;;;20.77;;
20772;SDS011;10546;50.674;4.616;2022-12-10T16:42:59;49.87;;;16.67;;
20772;SDS011;10546;50.674;4.616;2022-12-10T16:45:27;58.20;;;17.77;;
20772;SDS011;10546;50.674;4.616;2022-12-10T16:47:56;59.90;;;19.07;;
20772;SDS011;10546;50.674;4.616;2022-12-10T16:50:21;71.77;;;21.67;;
20772;SDS011;10546;50.674;4.616;2022-12-10T16:52:48;63.83;;;20.13;;
20772;SDS011;10546;50.674;4.616;2022-12-10T16:55:21;60.80;;;20.70;;
20772;SDS011;10546;50.674;4.616;2022-12-10T16:57:49;70.23;;;20.80;;
20772;SDS011;10546;50.674;4.616;2022-12-10T17:00:17;59.43;;;20.60;;
20772;SDS011;10546;50.674;4.616;2022-12-10T17:02:47;62.90;;;21.67;;
20772;SDS011;10546;50.674;4.616;2022-12-10T17:05:20;66.93;;;21.50;;
20772;SDS011;10546;50.674;4.616;2022-12-10T17:07:59;68.37;;;21.93;;
20772;SDS011;10546;50.674;4.616;2022-12-10T17:10:25;62.97;;;20.10;;
20772;SDS011;10546;50.674;4.616;2022-12-10T17:13:10;58.00;;;20.10;;
20772;SDS011;10546;50.674;4.616;2022-12-10T17:15:36;71.07;;;20.93;;
20772;SDS011;10546;50.674;4.616;2022-12-10T17:18:03;69.87;;;21.63;;
20772;SDS011;10546;50.674;4.616;2022-12-10T17:20:28;77.43;;;26.47;;
20772;SDS011;10546;50.674;4.616;2022-12-10T17:22:54;71.57;;;23.00;;
20772;SDS011;10546;50.674;4.616;2022-12-10T17:25:20;70.57;;;24.63;;
20772;SDS011;10546;50.674;4.616;2022-12-10T17:27:46;62.37;;;22.53;;
20772;SDS011;10546;50.674;4.616;2022-12-10T17:30:13;66.40;;;21.23;;
20772;SDS011;10546;50.674;4.616;2022-12-10T17:32:39;62.87;;;19.87;;
20772;SDS011;10546;50.674;4.616;2022-12-10T17:35:05;61.87;;;22.27;;
20772;SDS011;10546;50.674;4.616;2022-12-10T17:37:34;72.47;;;29.27;;
20772;SDS011;10546;50.674;4.616;2022-12-10T17:40:01;69.90;;;23.30;;
20772;SDS011;10546;50.674;4.616;2022-12-10T17:42:38;61.47;;;22.03;;
20772;SDS011;10546;50.674;4.616;2022-12-10T17:45:03;57.07;;;21.37;;
20772;SDS011;10546;50.674;4.616;2022-12-10T17:47:29;60.27;;;19.50;;
20772;SDS011;10546;50.674;4.616;2022-12-10T17:49:57;60.97;;;19.33;;
20772;SDS011;10546;50.674;4.616;2022-12-10T17:52:23;44.70;;;16.17;;
20772;SDS011;10546;50.674;4.616;2022-12-10T17:54:48;63.37;;;21.87;;
20772;SDS011;10546;50.674;4.616;2022-12-10T17:57:16;53.67;;;19.90;;
20772;SDS011;10546;50.674;4.616;2022-12-10T17:59:47;66.57;;;22.30;;
20772;SDS011;10546;50.674;4.616;2022-12-10T18:02:13;61.00;;;21.03;;
20772;SDS011;10546;50.674;4.616;2022-12-10T18:04:39;45.80;;;17.87;;
20772;SDS011;10546;50.674;4.616;2022-12-10T18:07:10;73.50;;;25.90;;
20772;SDS011;10546;50.674;4.616;2022-12-10T18:09:40;64.17;;;20.53;;
20772;SDS011;10546;50.674;4.616;2022-12-10T18:12:06;62.63;;;23.90;;
20772;SDS011;10546;50.674;4.616;2022-12-10T18:14:33;67.17;;;26.83;;
20772;SDS011;10546;50.674;4.616;2022-12-10T18:16:59;56.17;;;22.13;;
20772;SDS011;10546;50.674;4.616;2022-12-10T18:19:25;60.87;;;21.17;;
20772;SDS011;10546;50.674;4.616;2022-12-10T18:21:50;66.23;;;25.47;;
20772;SDS011;10546;50.674;4.616;2022-12-10T18:24:16;58.80;;;21.57;;
20772;SDS011;10546;50.674;4.616;2022-12-10T18:26:42;64.47;;;24.67;;
20772;SDS011;10546;50.674;4.616;2022-12-10T18:29:09;67.83;;;22.47;;
20772;SDS011;10546;50.674;4.616;2022-12-10T18:31:39;58.87;;;20.07;;
20772;SDS011;10546;50.674;4.616;2022-12-10T18:34:08;78.57;;;31.60;;
20772;SDS011;10546;50.674;4.616;2022-12-10T18:36:37;56.70;;;20.23;;
20772;SDS011;10546;50.674;4.616;2022-12-10T18:41:44;56.20;;;20.73;;
20772;SDS011;10546;50.674;4.616;2022-12-10T18:44:10;59.40;;;18.77;;
20772;SDS011;10546;50.674;4.616;2022-12-10T18:46:36;61.67;;;22.53;;
20772;SDS011;10546;50.674;4.616;2022-12-10T18:49:03;63.97;;;22.17;;
20772;SDS011;10546;50.674;4.616;2022-12-10T18:51:29;48.13;;;15.70;;
20772;SDS011;10546;50.674;4.616;2022-12-10T18:53:55;56.67;;;18.67;;
20772;SDS011;10546;50.674;4.616;2022-12-10T18:56:23;58.33;;;20.17;;
20772;SDS011;10546;50.674;4.616;2022-12-10T18:58:51;124.63;;;53.27;;
20772;SDS011;10546;50.674;4.616;2022-12-10T19:01:19;61.03;;;22.30;;
20772;SDS011;10546;50.674;4.616;2022-12-10T19:03:50;61.30;;;23.00;;
20772;SDS011;10546;50.674;4.616;2022-12-10T19:06:17;97.80;;;40.23;;
20772;SDS011;10546;50.674;4.616;2022-12-10T19:08:48;58.33;;;19.13;;
20772;SDS011;10546;50.674;4.616;2022-12-10T19:11:14;145.03;;;67.57;;
20772;SDS011;10546;50.674;4.616;2022-12-10T19:13:41;81.13;;;31.87;;
20772;SDS011;10546;50.674;4.616;2022-12-10T19:16:20;63.97;;;20.50;;
20772;SDS011;10546;50.674;4.616;2022-12-10T19:18:47;60.40;;;20.73;;
20772;SDS011;10546;50.674;4.616;2022-12-10T19:21:17;66.03;;;21.43;;
20772;SDS011;10546;50.674;4.616;2022-12-10T19:23:43;66.07;;;22.53;;
20772;SDS011;10546;50.674;4.616;2022-12-10T19:26:29;136.87;;;52.87;;
20772;SDS011;10546;50.674;4.616;2022-12-10T19:29:00;104.40;;;38.57;;
20772;SDS011;10546;50.674;4.616;2022-12-10T19:31:28;76.47;;;24.77;;
20772;SDS011;10546;50.674;4.616;2022-12-10T19:33:54;59.27;;;18.67;;
20772;SDS011;10546;50.674;4.616;2022-12-10T19:36:21;64.87;;;21.17;;
20772;SDS011;10546;50.674;4.616;2022-12-10T19:38:49;67.23;;;21.13;;
20772;SDS011;10546;50.674;4.616;2022-12-10T19:41:15;75.13;;;23.40;;
20772;SDS011;10546;50.674;4.616;2022-12-10T19:43:41;89.97;;;33.30;;
20772;SDS011;10546;50.674;4.616;2022-12-10T19:46:15;50.33;;;17.70;;
20772;SDS011;10546;50.674;4.616;2022-12-10T19:48:44;70.37;;;21.90;;
20772;SDS011;10546;50.674;4.616;2022-12-10T19:51:09;92.23;;;31.13;;
20772;SDS011;10546;50.674;4.616;2022-12-10T19:53:36;71.30;;;25.33;;
20772;SDS011;10546;50.674;4.616;2022-12-10T19:56:08;65.30;;;22.83;;
20772;SDS011;10546;50.674;4.616;2022-12-10T19:58:42;236.60;;;91.27;;
20772;SDS011;10546;50.674;4.616;2022-12-10T20:01:07;173.63;;;69.67;;
20772;SDS011;10546;50.674;4.616;2022-12-10T20:03:33;64.80;;;21.73;;
20772;SDS011;10546;50.674;4.616;2022-12-10T20:05:58;64.03;;;20.93;;
20772;SDS011;10546;50.674;4.616;2022-12-10T20:08:24;73.33;;;26.73;;
20772;SDS011;10546;50.674;4.616;2022-12-10T20:10:50;58.30;;;21.37;;
20772;SDS011;10546;50.674;4.616;2022-12-10T20:13:16;56.63;;;19.53;;
20772;SDS011;10546;50.674;4.616;2022-12-10T20:15:41;75.77;;;30.40;;
20772;SDS011;10546;50.674;4.616;2022-12-10T20:18:09;73.53;;;27.03;;
20772;SDS011;10546;50.674;4.616;2022-12-10T20:20:34;63.20;;;26.80;;
20772;SDS011;10546;50.674;4.616;2022-12-10T20:23:00;53.40;;;19.20;;
20772;SDS011;10546;50.674;4.616;2022-12-10T20:25:26;57.30;;;18.13;;
20772;SDS011;10546;50.674;4.616;2022-12-10T20:27:52;54.80;;;19.63;;
20772;SDS011;10546;50.674;4.616;2022-12-10T20:30:26;55.60;;;19.27;;
20772;SDS011;10546;50.674;4.616;2022-12-10T20:32:53;56.43;;;20.13;;
20772;SDS011;10546;50.674;4.616;2022-12-10T20:35:20;58.23;;;20.17;;
20772;SDS011;10546;50.674;4.616;2022-12-10T20:37:47;61.17;;;25.50;;
20772;SDS011;10546;50.674;4.616;2022-12-10T20:40:14;58.10;;;21.10;;
20772;SDS011;10546;50.674;4.616;2022-12-10T20:42:42;50.27;;;18.50;;
20772;SDS011;10546;50.674;4.616;2022-12-10T20:45:07;86.93;;;37.60;;
20772;SDS011;10546;50.674;4.616;2022-12-10T20:47:33;65.53;;;21.30;;
20772;SDS011;10546;50.674;4.616;2022-12-10T20:49:59;52.57;;;18.53;;
20772;SDS011;10546;50.674;4.616;2022-12-10T20:52:25;54.53;;;18.77;;
20772;SDS011;10546;50.674;4.616;2022-12-10T20:54:50;54.93;;;18.47;;
20772;SDS011;10546;50.674;4.616;2022-12-10T20:57:16;50.83;;;18.33;;
20772;SDS011;10546;50.674;4.616;2022-12-10T20:59:41;58.00;;;19.43;;
20772;SDS011;10546;50.674;4.616;2022-12-10T21:02:08;51.37;;;19.30;;
20772;SDS011;10546;50.674;4.616;2022-12-10T21:04:35;64.00;;;18.87;;
20772;SDS011;10546;50.674;4.616;2022-12-10T21:07:00;50.83;;;17.50;;
20772;SDS011;10546;50.674;4.616;2022-12-10T21:09:26;68.93;;;23.03;;
20772;SDS011;10546;50.674;4.616;2022-12-10T21:11:52;59.50;;;20.27;;
20772;SDS011;10546;50.674;4.616;2022-12-10T21:14:17;59.50;;;19.10;;
20772;SDS011;10546;50.674;4.616;2022-12-10T21:16:43;55.23;;;17.83;;
20772;SDS011;10546;50.674;4.616;2022-12-10T21:19:09;47.67;;;17.00;;
20772;SDS011;10546;50.674;4.616;2022-12-10T21:21:36;52.07;;;19.23;;
20772;SDS011;10546;50.674;4.616;2022-12-10T21:24:02;57.23;;;20.47;;
20772;SDS011;10546;50.674;4.616;2022-12-10T21:26:28;58.43;;;19.60;;
20772;SDS011;10546;50.674;4.616;2022-12-10T21:28:53;61.67;;;19.97;;
20772;SDS011;10546;50.674;4.616;2022-12-10T21:31:21;53.40;;;19.17;;
20772;SDS011;10546;50.674;4.616;2022-12-10T21:33:48;56.23;;;17.67;;
20772;SDS011;10546;50.674;4.616;2022-12-10T21:36:15;56.67;;;19.53;;
20772;SDS011;10546;50.674;4.616;2022-12-10T21:38:42;52.53;;;17.30;;
20772;SDS011;10546;50.674;4.616;2022-12-10T21:41:09;56.30;;;19.87;;
20772;SDS011;10546;50.674;4.616;2022-12-10T21:43:56;57.07;;;19.60;;
20772;SDS011;10546;50.674;4.616;2022-12-10T21:46:22;48.43;;;18.03;;
20772;SDS011;10546;50.674;4.616;2022-12-10T21:48:48;53.20;;;18.83;;
20772;SDS011;10546;50.674;4.616;2022-12-10T21:51:14;53.73;;;19.83;;
20772;SDS011;10546;50.674;4.616;2022-12-10T21:53:39;55.90;;;19.57;;
20772;SDS011;10546;50.674;4.616;2022-12-10T21:56:05;55.73;;;19.30;;
20772;SDS011;10546;50.674;4.616;2022-12-10T21:58:32;48.53;;;16.73;;
20772;SDS011;10546;50.674;4.616;2022-12-10T22:00:57;48.93;;;17.27;;
20772;SDS011;10546;50.674;4.616;2022-12-10T22:03:23;47.67;;;17.73;;
20772;SDS011;10546;50.674;4.616;2022-12-10T22:05:49;52.10;;;17.77;;
20772;SDS011;10546;50.674;4.616;2022-12-10T22:08:15;48.23;;;17.30;;
20772;SDS011;10546;50.674;4.616;2022-12-10T22:10:41;54.63;;;19.20;;
20772;SDS011;10546;50.674;4.616;2022-12-10T22:13:06;47.07;;;18.23;;
20772;SDS011;10546;50.674;4.616;2022-12-10T22:15:35;50.37;;;19.37;;
20772;SDS011;10546;50.674;4.616;2022-12-10T22:18:05;49.13;;;17.43;;
20772;SDS011;10546;50.674;4.616;2022-12-10T22:20:32;53.73;;;18.57;;
20772;SDS011;10546;50.674;4.616;2022-12-10T22:22:58;43.50;;;18.00;;
20772;SDS011;10546;50.674;4.616;2022-12-10T22:25:25;45.73;;;17.97;;
20772;SDS011;10546;50.674;4.616;2022-12-10T22:27:51;42.83;;;14.90;;
20772;SDS011;10546;50.674;4.616;2022-12-10T22:30:17;43.60;;;16.40;;
20772;SDS011;10546;50.674;4.616;2022-12-10T22:32:43;48.13;;;17.97;;
20772;SDS011;10546;50.674;4.616;2022-12-10T22:35:12;45.13;;;18.07;;
20772;SDS011;10546;50.674;4.616;2022-12-10T22:37:38;43.97;;;18.03;;
20772;SDS011;10546;50.674;4.616;2022-12-10T22:40:05;43.03;;;14.80;;
20772;SDS011;10546;50.674;4.616;2022-12-10T22:42:35;44.87;;;17.40;;
20772;SDS011;10546;50.674;4.616;2022-12-10T22:45:04;46.53;;;16.90;;
20772;SDS011;10546;50.674;4.616;2022-12-10T22:47:31;39.27;;;15.03;;
20772;SDS011;10546;50.674;4.616;2022-12-10T22:49:56;42.10;;;15.77;;
20772;SDS011;10546;50.674;4.616;2022-12-10T22:52:23;38.33;;;15.93;;
20772;SDS011;10546;50.674;4.616;2022-12-10T22:54:49;41.87;;;15.77;;
20772;SDS011;10546;50.674;4.616;2022-12-10T22:57:15;37.87;;;15.27;;
20772;SDS011;10546;50.674;4.616;2022-12-10T22:59:41;38.80;;;14.00;;
20772;SDS011;10546;50.674;4.616;2022-12-10T23:02:08;36.73;;;15.67;;
20772;SDS011;10546;50.674;4.616;2022-12-10T23:04:35;40.77;;;14.70;;
20772;SDS011;10546;50.674;4.616;2022-12-10T23:07:01;44.90;;;16.17;;
20772;SDS011;10546;50.674;4.616;2022-12-10T23:09:46;38.47;;;15.03;;
